AirNav   Air Wisconsin Up To $57,000 Bonus
 
 660 users online  

2WI9 Bulldog Ranch Airport
Oxford, Wisconsin, USA

GOING TO OXFORD?


FAA INFORMATION EFFECTIVE 26 JANUARY 2023

Location

FAA Identifier: 2WI9
Lat/Long: 43-45-35.9170N 089-38-05.4450W
43-45.598617N 089-38.090750W
43.7599769,-89.6348458
(estimated)
Elevation: 955 ft. / 291 m (estimated)
Variation: 00W (1990)
From city: 3 miles SW of OXFORD, WI
Time zone: UTC -6 (UTC -5 during Daylight Saving Time)
Zip code: 53952

Airport Operations

Airport use: Private use. Permission required prior to landing
Activation date: 08/1994
Control tower: no
ARTCC: CHICAGO CENTER
FSS: GREEN BAY FLIGHT SERVICE STATION
Attendance: UNATNDD
Segmented circle: no

Airport Communications

WX AWOS-3 at DLL (15 nm SW): 118.325 (608-356-1071)

Nearby radio navigation aids

VOR radial/distance  VOR name  Freq  Var
DLLr021/13.7DELLS VORTAC117.0003E
MSNr338/39.1MADISON VORTAC108.6003E

Airport Services

Runway Information

Runway 1/19

Dimensions: 2500 x 60 ft. / 762 x 18 m
Surface: turf
RUNWAY 1  RUNWAY 19
Traffic pattern: rightleft
Displaced threshold: no700 ft.
Obstructions: none50 ft. pline, marked, 300 ft. from runway

Airport Ownership and Management from official FAA records

Ownership: Privately-owned
Owner: BULLDOG RANCH INC
PO BOX 233
OXFORD, WI 53952
Phone 608-586-5997
Manager: G S RYNEARSON
PO BOX 233
OXFORD, WI 53952
Phone 312-987-2666

Airport Operational Statistics

Aircraft based on the field: 1
Single engine airplanes: 1
    

Additional Remarks

FOR CD CTC CHICAGO ARTCC AT 630-906-8921.

Instrument Procedures

There are no published instrument procedures at 2WI9.

Some nearby airports with instrument procedures:

C47 - Portage Municipal Airport (14 nm SE)
63C - Adams County Airport-Legion Field (14 nm NW)
KDLL - Baraboo/Wisconsin Dells Regional Airport (15 nm SW)
C35 - Reedsburg Municipal Airport (21 nm SW)
Y50 - Wautoma Municipal Airport (22 nm NE)
 
Loc | Ops | Rwys | IFR | FBO | Links
Com | Nav | Svcs | Stats | Notes
Area around 2WI9 (Bulldog Ranch Airport)
 
Road maps at: MapQuest Bing Google
 
Aerial photo
No photo
 
Sectional chart

 
Airport distance calculator
Flying to Bulldog Ranch Airport? Find the distance to fly.

From to 2WI9

Sunrise and sunset
Times for 07-Feb-2023
 Local
(UTC-6)
 Zulu
(UTC)
Morning civil twilight06:3912:39
Sunrise07:0913:09
Sunset17:1623:16
Evening civil twilight17:4623:46

Current date and time
Zulu (UTC)  07-Feb-2023 06:02:00
Local (UTC-6)  07-Feb-2023 00:02:00
 
METAR
KDLL 
15nm SW 
070555Z AUTO 19013G17KT 10SM OVC031 05/02 A2960 RMK AO2 T00520021 10056 20034 400561123
KC35 
21nm SW 
070555Z AUTO 18013G19KT 10SM OVC028 05/01 A2958 RMK AO2 T00500010 10055 20022 400551143 PWINO
KY50 
22nm NE 
070556Z AUTO 16006KT 10SM OVC035 03/01 A2961 RMK AO2 RAE18UPB25E34 SLP032 P0001 6//// T00280011 10033 20000 400331161 56036 $
K82C 
22nm W 
070555Z AUTO 16009KT 10SM OVC027 05/01 A2956 RMK AO2 60002 T00480012 10056 20021 400561150
KVOK 
29nm W 
070555Z AUTO 17008KT 10SM OVC026 04/01 A2955 RMK AO2 RAB0457E16 SLP018 P0001 60003 T00400009 10050 20016 400501161 58017
TAF
KVOK 
29nm W 
061700Z 0617/0723 13010G15KT 9999 FEW170 QNH2976INS BECMG 0702/0703 15012KT 9000 -SN OVC025 WS020/19050KT 620259 QNH2959INS BECMG 0705/0706 19010G15KT 9000 -RA OVC015 620159 QNH2959INS TEMPO 0706/0708 27015G25KT OVC008 620089 BECMG 0712/0713 27015G25KT 9999 NSW OVC015 620159 QNH2976INS BECMG 0716/0717 28015G25KT 9999 SCT015 OVC025 620259 QNH2993INS TX01/0705Z TNM08/0617Z LAST NO AMDS AFT 0622 NEXT 0709
NOTAMs
Click for the latest NOTAMs
NOTAMs are issued by the DoD/FAA and will open in a separate window not controlled by AirNav.

 

 
 

Would you like to see your business listed on this page?

 If your business provides an interesting product or service to pilots, flight crews, aircraft, or users of the Bulldog Ranch Airport, you should consider listing it here.  To start the listing process, click on the button below
 
Add a business
 

Other Pages about Bulldog Ranch Airport

Update a link
 
Copyright © AirNav, LLC. All rights reserved. Privacy Policy  Contact